Time;durP1;ratioP1;P1;durP2;ratioP2;P2;SDS_P1;SDS_P2;PMS_P1;PMS_P2;Temp;Humidity;BMP_temperature;BMP_pressure;BME280_temperature;BME280_humidity;BME280_pressure;Samples;Min_cycle;Max_cycle;Signal;HPM_P1;HPM_P2
2022/05/22 00:01:28;;;;;;;2.33;1.17;;;;;;;15.80;100.00;101135.00;1868977;75;21108;-72
2022/05/22 00:03:55;;;;;;;3.30;1.27;;;;;;;15.67;100.00;101132.98;1910817;73;21579;-72
2022/05/22 00:06:22;;;;;;;6.95;1.55;;;;;;;15.54;100.00;101134.00;1882887;75;21064;-72
2022/05/22 00:08:50;;;;;;;3.22;1.90;;;;;;;15.67;100.00;101128.25;1911871;75;21024;-72
2022/05/22 00:11:17;;;;;;;5.37;1.02;;;;;;;15.71;100.00;101133.36;1903200;74;21045;-72
2022/05/22 00:13:45;;;;;;;4.40;1.50;;;;;;;15.71;100.00;101133.36;1887553;75;21010;-72
2022/05/22 00:18:57;;;;;;;6.90;2.40;;;;;;;15.83;100.00;101125.03;1908529;75;21077;-72
2022/05/22 00:21:25;;;;;;;6.37;1.65;;;;;;;15.81;100.00;101121.62;1882062;75;21142;-72
2022/05/22 00:23:52;;;;;;;4.22;2.00;;;;;;;15.73;100.00;101118.67;1891774;74;21103;-72
2022/05/22 00:26:20;;;;;;;4.17;1.55;;;;;;;15.63;100.00;101114.46;1915657;75;21094;-72
2022/05/22 00:28:47;;;;;;;9.35;1.72;;;;;;;15.52;100.00;101108.54;1905807;75;21107;-72
2022/05/22 00:31:15;;;;;;;2.00;1.17;;;;;;;15.74;100.00;101104.84;1882618;75;21055;-72
2022/05/22 00:33:42;;;;;;;10.10;1.50;;;;;;;15.57;100.00;101106.78;1895341;75;21032;-72
2022/05/22 00:36:10;;;;;;;3.55;1.15;;;;;;;15.60;100.00;101100.28;1915935;75;21627;-72
2022/05/22 00:38:37;;;;;;;4.05;1.30;;;;;;;15.76;100.00;101100.06;1902131;75;21029;-72
2022/05/22 00:41:11;;;;;;;2.55;1.40;;;;;;;15.74;100.00;101108.72;1885439;75;21099;-72
2022/05/22 00:43:37;;;;;;;2.60;1.22;;;;;;;15.81;100.00;101112.09;1900665;73;21492;-72
2022/05/22 00:46:08;;;;;;;3.77;1.40;;;;;;;15.85;100.00;101103.86;1884699;75;21100;-72
2022/05/22 00:48:35;;;;;;;4.12;1.30;;;;;;;15.79;100.00;101103.92;1903359;75;21078;-72
2022/05/22 00:51:12;;;;;;;3.83;1.02;;;;;;;15.72;100.00;101096.67;1876563;75;21507;-72
2022/05/22 00:53:42;;;;;;;3.25;1.17;;;;;;;15.80;100.00;101091.37;1869496;75;21094;-72
2022/05/22 00:56:11;;;;;;;4.30;1.65;;;;;;;15.85;100.00;101089.61;1870350;75;21043;-72
2022/05/22 00:58:39;;;;;;;3.15;1.30;;;;;;;15.76;100.00;101088.41;1887762;75;21014;-72
2022/05/22 01:01:07;;;;;;;4.90;1.47;;;;;;;15.63;100.00;101078.20;1902735;75;21096;-72
2022/05/22 01:03:36;;;;;;;3.10;1.85;;;;;;;15.71;100.00;101075.08;1883638;75;21117;-72
2022/05/22 01:06:12;;;;;;;2.67;1.40;;;;;;;15.67;100.00;101073.41;1874030;75;21502;-72
2022/05/22 01:08:42;;;;;;;3.55;1.70;;;;;;;15.77;100.00;101072.85;1870771;75;21068;-72
2022/05/22 01:11:12;;;;;;;3.02;1.00;;;;;;;15.66;100.00;101067.81;1870379;75;21163;-72
2022/05/22 01:13:45;;;;;;;2.45;1.10;;;;;;;15.82;100.00;101066.33;1880295;75;21066;-72
2022/05/22 01:16:13;;;;;;;3.00;1.32;;;;;;;15.64;100.00;101064.40;1866443;76;21028;-72
2022/05/22 01:18:48;;;;;;;5.53;2.08;;;;;;;15.71;100.00;101071.19;1874817;75;21036;-72
2022/05/22 01:21:19;;;;;;;5.62;1.62;;;;;;;15.71;100.00;101074.24;1877974;75;21046;-72
2022/05/22 01:23:46;;;;;;;3.85;1.12;;;;;;;15.60;100.00;101066.61;1876975;75;21037;-72
2022/05/22 01:26:15;;;;;;;1.92;1.20;;;;;;;15.73;100.00;101059.52;1902764;75;21468;-72
2022/05/22 01:28:42;;;;;;;4.08;1.25;;;;;;;15.85;100.00;101065.83;1894067;75;21451;-72
2022/05/22 01:31:10;;;;;;;6.22;1.30;;;;;;;15.83;100.00;101058.53;1870814;75;21104;-72
2022/05/22 01:33:39;;;;;;;3.52;1.10;;;;;;;15.71;100.00;101062.12;1862850;75;21186;-72
2022/05/22 01:36:07;;;;;;;2.95;1.30;;;;;;;15.88;100.00;101070.14;1874954;75;21726;-72
2022/05/22 01:38:36;;;;;;;3.50;1.62;;;;;;;15.87;100.00;101067.11;1887726;75;21223;-72
2022/05/22 01:41:05;;;;;;;3.05;1.32;;;;;;;15.73;100.00;101053.91;1888737;75;21029;-72
2022/05/22 01:43:33;;;;;;;3.17;1.00;;;;;;;15.77;100.00;101057.30;1897234;75;21022;-72
2022/05/22 01:46:02;;;;;;;4.10;1.45;;;;;;;15.89;100.00;101050.25;1874448;76;21502;-72
2022/05/22 01:48:30;;;;;;;6.30;1.67;;;;;;;15.71;100.00;101050.47;1897203;75;21151;-72
2022/05/22 01:50:57;;;;;;;7.22;1.00;;;;;;;15.67;100.00;101048.80;1855192;75;21038;-72
2022/05/22 01:53:25;;;;;;;4.10;1.40;;;;;;;15.68;100.00;101034.99;1870779;75;21004;-72
2022/05/22 01:55:53;;;;;;;5.10;1.20;;;;;;;15.60;100.00;101040.71;1873362;75;21040;-72
2022/05/22 01:58:20;;;;;;;5.05;1.17;;;;;;;15.69;100.00;101034.53;1901722;75;21053;-72
2022/05/22 02:00:48;;;;;;;3.72;1.20;;;;;;;15.68;100.00;101022.47;1876018;75;21257;-72
2022/05/22 02:03:15;;;;;;;9.25;1.10;;;;;;;15.70;100.00;101026.75;1886228;75;21021;-72
2022/05/22 02:05:43;;;;;;;2.62;1.50;;;;;;;15.70;100.00;101021.56;1874584;75;21233;-72
2022/05/22 02:08:22;;;;;;;7.12;1.98;;;;;;;15.50;100.00;101014.07;1859247;76;21072;-72
2022/05/22 02:10:54;;;;;;;5.50;1.62;;;;;;;15.66;100.00;101005.65;1879389;75;21175;-72
2022/05/22 02:13:24;;;;;;;4.08;2.12;;;;;;;15.68;100.00;101003.05;1877724;75;21089;-72
2022/05/22 02:15:52;;;;;;;4.45;1.10;;;;;;;15.88;100.00;101002.78;1892244;75;21469;-72
2022/05/22 02:18:20;;;;;;;2.33;1.12;;;;;;;15.80;100.00;100995.09;1870060;75;21123;-72
2022/05/22 02:20:50;;;;;;;8.33;1.57;;;;;;;15.58;100.00;100986.77;1870146;75;21478;-72
2022/05/22 02:23:20;;;;;;;3.25;2.08;;;;;;;15.57;100.00;100985.06;1892991;75;21034;-72
2022/05/22 02:25:51;;;;;;;4.28;1.25;;;;;;;15.47;100.00;100982.58;1901325;75;21066;-72
2022/05/22 02:28:20;;;;;;;5.45;1.32;;;;;;;15.62;100.00;100978.08;1876408;75;21124;-72
2022/05/22 02:30:50;;;;;;;2.77;1.22;;;;;;;15.46;100.00;100970.52;1870188;75;21115;-72
2022/05/22 02:33:18;;;;;;;5.35;1.40;;;;;;;15.49;100.00;100968.31;1870595;75;21084;-72
2022/05/22 02:35:47;;;;;;;5.28;1.82;;;;;;;15.29;100.00;100967.29;1887313;75;21159;-72
2022/05/22 02:38:16;;;;;;;3.77;1.22;;;;;;;15.26;100.00;100960.85;1895745;75;21105;-72
2022/05/22 02:40:44;;;;;;;3.42;1.20;;;;;;;15.34;100.00;100956.44;1869552;75;21073;-72
2022/05/22 02:43:12;;;;;;;5.35;1.92;;;;;;;15.42;100.00;100954.59;1870274;75;21069;-72
2022/05/22 02:45:40;;;;;;;2.40;1.30;;;;;;;15.42;100.00;100950.72;1870683;75;21073;-72
2022/05/22 02:48:08;;;;;;;3.83;1.30;;;;;;;15.49;100.00;100956.66;1904974;75;21108;-72
2022/05/22 02:50:37;;;;;;;0.93;0.80;;;;;;;15.56;100.00;100962.61;1915753;75;21029;-72
2022/05/22 02:53:05;;;;;;;6.60;1.50;;;;;;;15.58;100.00;100957.85;1915859;75;21114;-72
2022/05/22 02:55:32;;;;;;;3.02;1.00;;;;;;;15.56;100.00;100947.94;1915840;73;21037;-72
2022/05/22 02:58:00;;;;;;;4.20;1.42;;;;;;;15.60;100.00;100950.06;1915262;75;21536;-72
2022/05/22 03:00:30;;;;;;;3.45;1.57;;;;;;;15.59;100.00;100961.28;1915795;75;21178;-72
2022/05/22 03:02:58;;;;;;;1.42;0.98;;;;;;;15.58;100.00;100977.28;1915599;75;21049;-72
2022/05/22 03:06:37;;;;;;;5.10;1.40;;;;;;;15.67;100.00;100989.22;1915423;73;21065;-72
2022/05/22 03:07:56;;;;;;;8.60;1.37;;;;;;;15.92;100.00;101001.86;1898146;75;21187;-72
2022/05/22 03:10:24;;;;;;;7.37;1.10;;;;;;;16.04;100.00;101001.27;1879476;75;21483;-72
2022/05/22 03:12:52;;;;;;;4.70;0.88;;;;;;;15.99;100.00;101011.72;1911548;75;21124;-72
2022/05/22 03:15:19;;;;;;;2.42;1.05;;;;;;;16.20;100.00;101022.64;1905014;75;21034;-72
2022/05/22 03:17:47;;;;;;;5.75;1.20;;;;;;;16.06;100.00;101028.03;1883038;75;21059;-72
2022/05/22 03:20:15;;;;;;;4.47;1.40;;;;;;;16.20;100.00;101045.55;1858576;74;21073;-72
2022/05/22 03:22:42;;;;;;;5.35;1.57;;;;;;;16.26;100.00;101047.19;1882655;75;21565;-72
2022/05/22 03:25:11;;;;;;;6.25;1.57;;;;;;;16.16;100.00;101055.54;1882864;75;21123;-72
2022/05/22 03:27:38;;;;;;;2.22;1.05;;;;;;;16.16;100.00;101049.06;1897899;75;21466;-72
2022/05/22 03:30:07;;;;;;;3.67;1.82;;;;;;;16.24;100.00;101038.14;1911136;75;21202;-72
2022/05/22 03:32:34;;;;;;;5.05;1.10;;;;;;;16.37;100.00;101039.23;1882842;75;21043;-72
2022/05/22 03:35:02;;;;;;;5.60;1.67;;;;;;;16.16;100.00;101029.63;1882843;75;21131;-72
2022/05/22 03:37:29;;;;;;;2.17;1.00;;;;;;;16.09;100.00;101026.23;1899500;75;21089;-72
2022/05/22 03:39:57;;;;;;;1.77;1.00;;;;;;;16.20;100.00;101011.84;1915367;75;21017;-72
2022/05/22 03:42:29;;;;;;;5.95;0.95;;;;;;;16.24;100.00;100994.49;1910374;74;21084;-72
2022/05/22 03:44:53;;;;;;;3.05;1.40;;;;;;;16.12;100.00;100986.02;1906309;74;21073;-73
2022/05/22 03:47:21;;;;;;;4.37;1.22;;;;;;;16.17;100.00;100966.95;1908227;75;21599;-72
2022/05/22 03:49:48;;;;;;;3.72;1.22;;;;;;;15.80;100.00;100981.28;1901298;75;21070;-72
2022/05/22 03:52:15;;;;;;;5.17;1.22;;;;;;;16.01;100.00;100992.27;1880780;76;21113;-72
2022/05/22 03:54:43;;;;;;;5.78;1.32;;;;;;;15.89;100.00;100982.46;1870522;75;21439;-72
2022/05/22 03:57:11;;;;;;;2.65;1.10;;;;;;;15.69;100.00;100976.26;1858485;76;21518;-72
2022/05/22 03:59:40;;;;;;;2.75;1.02;;;;;;;15.67;100.00;100968.50;1880245;75;21079;-72
2022/05/22 04:02:07;;;;;;;6.20;1.45;;;;;;;15.74;100.00;100966.71;1902288;75;21100;-72
2022/05/22 04:04:35;;;;;;;2.77;1.17;;;;;;;15.88;100.00;100971.69;1871850;75;21581;-72
2022/05/22 04:07:03;;;;;;;4.55;1.25;;;;;;;15.80;100.00;100967.90;1891049;75;21037;-72
2022/05/22 04:09:30;;;;;;;6.80;1.57;;;;;;;15.95;100.00;100959.52;1871292;75;21091;-72
2022/05/22 04:11:58;;;;;;;2.72;1.07;;;;;;;15.99;100.00;100952.13;1882444;75;21149;-72
2022/05/22 04:14:26;;;;;;;2.67;1.17;;;;;;;15.64;100.00;100944.39;1866965;75;21116;-72
2022/05/22 04:16:53;;;;;;;4.58;1.30;;;;;;;15.70;100.00;100928.31;1900754;75;21042;-72
2022/05/22 04:19:21;;;;;;;4.47;1.37;;;;;;;15.36;100.00;100922.34;1869508;77;21036;-72
2022/05/22 04:21:48;;;;;;;6.03;1.87;;;;;;;15.63;100.00;100929.28;1872519;75;21037;-72
2022/05/22 04:27:05;;;;;;;3.37;1.57;;;;;;;15.21;100.00;100914.31;1873548;75;21064;-72
2022/05/22 04:29:34;;;;;;;4.95;1.40;;;;;;;15.34;100.00;100915.02;1870273;75;21009;-72
2022/05/22 04:32:02;;;;;;;4.17;1.60;;;;;;;15.51;100.00;100912.63;1879976;75;21463;-72
2022/05/22 04:34:30;;;;;;;6.65;1.37;;;;;;;15.41;100.00;100908.88;1902525;75;21073;-72
2022/05/22 04:36:58;;;;;;;9.18;2.58;;;;;;;15.44;100.00;100904.09;1870077;75;21098;-72
2022/05/22 04:39:25;;;;;;;7.95;1.92;;;;;;;15.66;100.00;100905.06;1890985;75;21588;-72
2022/05/22 04:41:52;;;;;;;4.95;1.22;;;;;;;15.81;100.00;100893.64;1891480;75;21033;-72
2022/05/22 04:44:20;;;;;;;5.55;1.07;;;;;;;15.93;100.00;100886.96;1870443;75;21076;-72
2022/05/22 04:46:48;;;;;;;4.42;2.00;;;;;;;15.85;100.00;100886.23;1870932;75;21134;-72
2022/05/22 04:49:15;;;;;;;5.08;1.52;;;;;;;15.99;100.00;100884.28;1871951;75;21141;-72
2022/05/22 04:51:43;;;;;;;5.20;1.90;;;;;;;15.89;100.00;100881.84;1878032;75;21038;-72
2022/05/22 04:54:11;;;;;;;4.97;1.20;;;;;;;15.93;100.00;100879.62;1878125;75;21110;-72
2022/05/22 04:56:39;;;;;;;2.80;1.02;;;;;;;15.90;100.00;100880.53;1877737;75;21540;-72
2022/05/22 04:59:06;;;;;;;5.17;1.12;;;;;;;16.11;100.00;100879.78;1878103;75;21098;-72
2022/05/22 05:01:34;;;;;;;5.85;1.20;;;;;;;16.14;100.00;100877.14;1878059;75;21023;-72
2022/05/22 05:04:01;;;;;;;4.80;1.02;;;;;;;16.19;100.00;100878.37;1877962;75;21645;-72
2022/05/22 05:06:30;;;;;;;5.50;1.15;;;;;;;16.31;100.00;100879.44;1878158;75;21086;-72
2022/05/22 05:08:57;;;;;;;4.95;1.57;;;;;;;16.41;100.00;100887.05;1877613;75;21045;-72
2022/05/22 05:11:25;;;;;;;2.45;1.52;;;;;;;16.51;100.00;100887.30;1905126;75;21021;-72
2022/05/22 05:13:53;;;;;;;2.22;1.07;;;;;;;16.59;100.00;100899.67;1908097;75;21135;-72
2022/05/22 05:16:21;;;;;;;4.35;0.90;;;;;;;16.54;100.00;100900.64;1910621;75;21025;-72
2022/05/22 05:18:50;;;;;;;4.53;1.62;;;;;;;16.59;100.00;100902.27;1910288;75;21151;-72
2022/05/22 05:21:18;;;;;;;3.35;1.85;;;;;;;16.63;100.00;100888.79;1891931;75;21106;-72
2022/05/22 05:23:47;;;;;;;6.50;1.27;;;;;;;16.85;100.00;100884.03;1877741;75;21043;-72
2022/05/22 05:26:14;;;;;;;1.92;0.90;;;;;;;16.88;100.00;100872.73;1878000;75;21015;-72
2022/05/22 05:28:42;;;;;;;3.75;1.82;;;;;;;16.81;100.00;100868.58;1878046;75;21488;-72
2022/05/22 05:31:09;;;;;;;2.52;1.22;;;;;;;16.94;100.00;100859.64;1877948;75;21078;-72
2022/05/22 05:33:37;;;;;;;1.50;0.88;;;;;;;17.05;100.00;100854.67;1878128;75;21516;-72
2022/05/22 05:36:08;;;;;;;4.30;1.02;;;;;;;16.94;100.00;100855.75;1877765;75;21059;-72
2022/05/22 05:38:35;;;;;;;4.28;1.27;;;;;;;16.94;100.00;100847.96;1878370;75;21450;-72
2022/05/22 05:41:03;;;;;;;4.00;1.37;;;;;;;17.06;100.00;100847.33;1877886;75;21004;-72
2022/05/22 05:43:30;;;;;;;2.25;1.02;;;;;;;17.15;100.00;100853.60;1877878;75;21012;-72
2022/05/22 05:45:57;;;;;;;4.67;1.10;;;;;;;17.11;100.00;100845.04;1878068;75;21161;-72
2022/05/22 05:48:25;;;;;;;5.33;1.00;;;;;;;17.19;100.00;100841.42;1905031;75;21086;-73
2022/05/22 05:50:55;;;;;;;3.83;1.07;;;;;;;17.27;100.00;100842.10;1877775;75;21521;-76
2022/05/22 05:53:22;;;;;;;3.27;0.78;;;;;;;17.19;100.00;100838.37;1882382;76;21121;-74
2022/05/22 05:55:50;;;;;;;2.02;1.10;;;;;;;17.17;100.00;100837.56;1880378;76;21614;-74
2022/05/22 05:58:17;;;;;;;2.77;0.90;;;;;;;17.25;100.00;100832.18;1880457;76;21060;-74
2022/05/22 06:00:45;;;;;;;6.22;1.40;;;;;;;17.31;100.00;100835.09;1874654;76;21079;-75
2022/05/22 06:03:13;;;;;;;6.55;1.27;;;;;;;17.35;100.00;100832.83;1872156;76;21120;-74
2022/05/22 06:05:42;;;;;;;5.65;1.20;;;;;;;16.93;100.00;100819.44;1876318;76;21080;-74
2022/05/22 06:08:09;;;;;;;4.22;1.77;;;;;;;17.17;100.00;100816.80;1880462;76;21099;-75
2022/05/22 06:10:38;;;;;;;9.93;1.60;;;;;;;17.14;100.00;100815.12;1879158;76;21199;-74
2022/05/22 06:13:08;;;;;;;3.42;1.20;;;;;;;17.14;100.00;100817.72;1874468;76;21147;-74
2022/05/22 06:15:36;;;;;;;3.30;1.40;;;;;;;17.25;100.00;100810.98;1850448;75;21062;-74
2022/05/22 06:18:04;;;;;;;4.28;0.93;;;;;;;17.17;100.00;100803.81;1876079;76;21084;-74
2022/05/22 06:20:31;;;;;;;4.92;1.55;;;;;;;16.99;100.00;100801.16;1879145;76;21116;-74
2022/05/22 06:22:59;;;;;;;4.67;1.25;;;;;;;16.81;100.00;100799.35;1874654;76;21529;-74
2022/05/22 06:25:26;;;;;;;2.62;1.70;;;;;;;17.01;100.00;100792.44;1879230;76;21202;-74
2022/05/22 06:27:53;;;;;;;4.45;1.12;;;;;;;16.90;100.00;100782.73;1873995;76;21100;-75
2022/05/22 06:30:22;;;;;;;3.30;1.17;;;;;;;16.64;100.00;100770.73;1871488;74;21110;-74
2022/05/22 06:32:50;;;;;;;1.77;1.02;;;;;;;16.63;100.00;100762.98;1886997;74;21144;-74
2022/05/22 06:35:18;;;;;;;5.45;1.35;;;;;;;16.55;100.00;100767.48;1863193;74;21058;-74
2022/05/22 06:37:45;;;;;;;4.37;1.45;;;;;;;16.23;100.00;100768.55;1871753;75;21458;-74
2022/05/22 06:40:14;;;;;;;5.55;1.52;;;;;;;16.24;100.00;100761.19;1824396;77;21115;-74
2022/05/22 06:42:43;;;;;;;3.50;1.10;;;;;;;15.94;100.00;100751.77;1848127;76;21057;-73
2022/05/22 06:45:14;;;;;;;4.62;1.62;;;;;;;15.81;100.00;100736.45;1847550;76;21161;-73
2022/05/22 06:47:43;;;;;;;4.17;1.85;;;;;;;15.79;100.00;100734.78;1848682;76;21458;-73
2022/05/22 06:50:16;;;;;;;9.30;1.72;;;;;;;15.82;100.00;100734.30;1849921;75;21131;-73
2022/05/22 06:52:44;;;;;;;4.00;1.57;;;;;;;15.97;100.00;100721.95;1898934;75;21569;-74
2022/05/22 06:55:12;;;;;;;3.10;1.40;;;;;;;15.98;100.00;100716.74;1899961;75;21124;-73
2022/05/22 06:57:41;;;;;;;1.70;1.20;;;;;;;15.98;100.00;100706.38;1900376;75;21030;-74
2022/05/22 07:00:14;;;;;;;2.17;1.50;;;;;;;16.17;100.00;100699.55;1901075;75;21037;-74
2022/05/22 07:02:42;;;;;;;3.87;1.70;;;;;;;15.97;100.00;100694.31;1878358;75;21108;-74
2022/05/22 07:05:11;;;;;;;2.83;1.50;;;;;;;16.02;100.00;100696.83;1878043;75;21160;-74
2022/05/22 07:07:38;;;;;;;4.17;1.47;;;;;;;16.05;100.00;100690.72;1892409;75;21140;-74
2022/05/22 07:10:06;;;;;;;5.40;1.60;;;;;;;16.29;100.00;100679.44;1882410;75;21078;-74
2022/05/22 07:12:34;;;;;;;4.05;1.52;;;;;;;16.27;100.00;100688.55;1865198;75;21216;-74
2022/05/22 07:15:02;;;;;;;2.83;1.15;;;;;;;16.36;100.00;100678.40;1900361;75;21143;-74
2022/05/22 07:17:30;;;;;;;2.52;1.30;;;;;;;16.43;100.00;100672.20;1901147;75;21126;-74
2022/05/22 07:19:58;;;;;;;5.00;1.67;;;;;;;16.32;100.00;100672.88;1901068;75;21017;-75
2022/05/22 07:22:26;;;;;;;3.60;1.42;;;;;;;16.46;100.00;100664.36;1900617;75;21135;-75
2022/05/22 07:24:53;;;;;;;2.47;1.30;;;;;;;16.49;100.00;100673.81;1900753;75;21073;-75
2022/05/22 07:27:21;;;;;;;6.72;1.50;;;;;;;16.48;100.00;100679.45;1900418;75;21033;-75
2022/05/22 07:29:49;;;;;;;2.98;1.82;;;;;;;16.47;100.00;100685.51;1878876;75;21107;-75
2022/05/22 07:32:17;;;;;;;3.02;1.77;;;;;;;16.49;100.00;100672.08;1900750;75;21613;-75
2022/05/22 07:34:44;;;;;;;2.55;1.32;;;;;;;16.67;100.00;100675.59;1900669;75;21089;-75
2022/05/22 07:37:13;;;;;;;3.75;1.20;;;;;;;16.78;100.00;100675.34;1879448;73;21017;-75
2022/05/22 07:39:40;;;;;;;3.10;1.62;;;;;;;16.94;100.00;100676.68;1894602;74;21082;-75
2022/05/22 07:42:07;;;;;;;4.15;1.42;;;;;;;17.07;100.00;100669.92;1861301;75;21115;-75
2022/05/22 07:44:37;;;;;;;6.33;1.37;;;;;;;17.08;100.00;100671.19;1900942;73;21554;-75
2022/05/22 07:47:04;;;;;;;3.62;2.02;;;;;;;16.96;100.00;100673.63;1906455;73;21166;-75
2022/05/22 07:52:17;;;;;;;3.37;1.32;;;;;;;16.97;100.00;100661.05;1904264;74;21096;-75
2022/05/22 07:54:44;;;;;;;2.62;1.10;;;;;;;17.12;100.00;100653.34;1897539;74;21035;-75
2022/05/22 07:57:12;;;;;;;1.87;1.35;;;;;;;16.93;100.00;100641.69;1876218;74;21001;-75
2022/05/22 07:59:40;;;;;;;5.85;1.72;;;;;;;17.00;100.00;100637.63;1907602;74;21217;-75
2022/05/22 08:02:12;;;;;;;1.77;1.15;;;;;;;17.02;100.00;100634.52;1904593;74;21020;-75
2022/05/22 08:04:41;;;;;;;4.45;1.37;;;;;;;17.21;100.00;100635.83;1906072;74;21181;-75
2022/05/22 08:07:09;;;;;;;5.97;1.50;;;;;;;17.49;100.00;100636.41;1876424;74;21085;-75
2022/05/22 08:09:36;;;;;;;3.33;1.42;;;;;;;17.59;100.00;100636.57;1905833;74;21033;-75
2022/05/22 08:12:04;;;;;;;2.58;1.62;;;;;;;17.48;100.00;100638.61;1843456;75;21680;-75
2022/05/22 08:14:32;;;;;;;4.42;1.80;;;;;;;17.41;100.00;100626.23;1877044;75;21066;-75
2022/05/22 08:17:00;;;;;;;3.70;1.42;;;;;;;17.60;100.00;100617.48;1896895;75;21604;-75
2022/05/22 08:19:28;;;;;;;3.87;1.47;;;;;;;17.81;100.00;100609.14;1895466;75;21088;-75
2022/05/22 08:21:55;;;;;;;3.20;1.25;;;;;;;17.93;100.00;100618.71;1890678;75;21063;-75
2022/05/22 08:24:22;;;;;;;3.15;1.42;;;;;;;17.76;100.00;100616.63;1894551;75;21616;-75
2022/05/22 08:26:51;;;;;;;4.50;1.47;;;;;;;18.04;100.00;100620.16;1897413;75;21069;-75
2022/05/22 08:29:18;;;;;;;4.55;1.98;;;;;;;17.90;100.00;100621.86;1892639;75;21114;-75
2022/05/22 08:31:46;;;;;;;4.65;1.47;;;;;;;18.11;100.00;100626.05;1895185;75;21182;-75
2022/05/22 08:34:14;;;;;;;5.60;2.10;;;;;;;18.39;100.00;100630.42;1898828;74;21246;-75
2022/05/22 08:36:42;;;;;;;3.47;1.72;;;;;;;18.63;100.00;100628.81;1893799;75;21155;-75
2022/05/22 08:39:09;;;;;;;2.95;1.50;;;;;;;18.68;100.00;100628.64;1894059;75;21045;-75
2022/05/22 08:41:40;;;;;;;4.67;1.80;;;;;;;18.94;100.00;100623.91;1895874;75;21124;-75
2022/05/22 08:44:10;;;;;;;5.62;1.30;;;;;;;18.92;100.00;100627.45;1887784;75;21123;-75
2022/05/22 08:47:06;;;;;;;3.40;1.62;;;;;;;18.89;100.00;100631.00;1890531;75;21033;-75
2022/05/22 08:49:44;;;;;;;5.00;1.82;;;;;;;18.85;100.00;100637.69;1891208;74;21198;-75
2022/05/22 08:52:17;;;;;;;5.78;2.37;;;;;;;18.82;100.00;100629.06;1892916;75;21077;-75
2022/05/22 08:54:50;;;;;;;2.62;1.42;;;;;;;18.93;100.00;100625.27;1897711;74;21131;-75
2022/05/22 09:00:15;;;;;;;4.65;1.30;;;;;;;19.25;100.00;100628.56;1857295;76;21118;-75
2022/05/22 09:03:04;;;;;;;3.60;1.40;;;;;;;19.17;100.00;100639.70;1901819;75;21129;-75
2022/05/22 09:05:33;;;;;;;3.98;1.57;;;;;;;19.12;100.00;100638.98;1892834;75;21055;-75
2022/05/22 09:10:49;;;;;;;4.10;1.90;;;;;;;19.04;100.00;100635.31;1929663;73;26486;-74
2022/05/22 09:13:47;;;;;;;2.70;1.45;;;;;;;19.10;100.00;100642.09;1890264;75;21060;-72
2022/05/22 09:16:29;;;;;;;3.80;1.60;;;;;;;19.07;100.00;100656.08;1866260;76;21472;-74
2022/05/22 09:19:05;;;;;;;3.95;1.35;;;;;;;19.25;100.00;100669.37;1883393;76;21033;-75
2022/05/22 09:21:53;;;;;;;3.20;2.02;;;;;;;19.26;100.00;100669.32;1883012;76;21036;-73
2022/05/22 09:24:34;;;;;;;4.67;2.33;;;;;;;19.42;100.00;100694.37;1883069;76;21118;-74
2022/05/22 09:27:08;;;;;;;2.85;1.62;;;;;;;19.28;100.00;100713.08;1883096;76;21119;-74
2022/05/22 09:29:57;;;;;;;2.67;1.47;;;;;;;19.44;100.00;100716.47;1883142;76;21084;-74
2022/05/22 09:32:54;;;;;;;3.35;1.55;;;;;;;19.26;100.00;100730.53;1883260;76;21154;-74
2022/05/22 09:35:30;;;;;;;4.58;1.67;;;;;;;19.26;100.00;100731.83;1881495;76;21112;-74
2022/05/22 09:38:27;;;;;;;4.03;1.40;;;;;;;19.38;100.00;100705.81;1882862;76;21123;-74
2022/05/22 09:41:03;;;;;;;2.83;1.42;;;;;;;19.38;100.00;100705.81;1882786;76;21121;-74
2022/05/22 09:43:58;;;;;;;3.12;1.50;;;;;;;19.58;100.00;100697.32;1834875;77;21103;-74
2022/05/22 09:46:37;;;;;;;2.27;1.32;;;;;;;19.63;100.00;100684.14;1878684;76;21497;-74
2022/05/22 09:49:16;;;;;;;3.60;1.65;;;;;;;19.84;100.00;100682.53;1883323;76;21037;-74
2022/05/22 09:52:08;;;;;;;5.72;1.60;;;;;;;19.87;100.00;100670.27;1882992;76;21486;-74
2022/05/22 09:54:56;;;;;;;4.05;1.62;;;;;;;19.73;100.00;100661.20;1882805;76;21161;-74
2022/05/22 09:57:36;;;;;;;3.95;1.72;;;;;;;19.63;100.00;100646.80;1882982;76;21033;-75
2022/05/22 10:00:13;;;;;;;6.83;1.70;;;;;;;19.82;100.00;100637.41;1883113;76;21033;-72
2022/05/22 10:03:01;;;;;;;3.70;1.35;;;;;;;19.76;100.00;100625.88;1880484;76;21068;-73
2022/05/22 10:05:32;;;;;;;5.40;1.92;;;;;;;19.75;100.00;100621.59;1882727;76;21100;-73
2022/05/22 10:08:22;;;;;;;3.75;1.50;;;;;;;19.87;100.00;100614.22;1842085;77;21054;-73
2022/05/22 10:10:55;;;;;;;7.87;2.22;;;;;;;20.06;100.00;100591.79;1865649;77;21192;-73
2022/05/22 10:13:34;;;;;;;7.58;1.32;;;;;;;20.51;100.00;100603.53;1848206;77;21031;-73
2022/05/22 10:16:21;;;;;;;3.08;1.40;;;;;;;21.06;100.00;100599.58;1864845;76;21164;-73
2022/05/22 10:19:20;;;;;;;4.67;1.95;;;;;;;21.12;100.00;100604.52;1878390;76;21128;-73
2022/05/22 10:22:03;;;;;;;7.25;1.55;;;;;;;21.19;100.00;100593.37;1879500;76;21094;-73
2022/05/22 10:24:34;;;;;;;3.45;1.72;;;;;;;21.00;100.00;100586.33;1863774;77;21046;-73
2022/05/22 10:27:33;;;;;;;4.33;1.47;;;;;;;21.24;100.00;100572.26;1865310;77;21659;-73
2022/05/22 10:30:23;;;;;;;15.18;2.72;;;;;;;21.55;100.00;100589.64;1845315;76;21116;-73
2022/05/22 10:33:09;;;;;;;4.92;1.95;;;;;;;21.58;100.00;100579.05;1859021;77;21037;-73
2022/05/22 10:35:39;;;;;;;6.97;1.52;;;;;;;21.96;100.00;100570.39;1870329;76;21065;-73
2022/05/22 10:38:12;;;;;;;7.28;1.70;;;;;;;21.56;100.00;100567.36;1870616;76;21045;-73
2022/05/22 10:43:33;;;;;;;6.37;1.80;;;;;;;22.20;100.00;100561.84;1861209;76;21205;-72
2022/05/22 10:46:01;;;;;;;3.08;1.50;;;;;;;21.55;100.00;100555.66;1861686;77;21148;-73
2022/05/22 10:48:31;;;;;;;3.30;1.50;;;;;;;21.73;100.00;100550.08;1865252;76;21062;-73
2022/05/22 10:51:08;;;;;;;4.95;1.87;;;;;;;22.02;100.00;100546.57;1867562;77;21511;-73
2022/05/22 10:53:50;;;;;;;3.35;1.52;;;;;;;22.05;100.00;100549.05;1863966;77;21042;-73
2022/05/22 10:56:26;;;;;;;5.90;2.10;;;;;;;22.33;100.00;100541.17;1869101;77;21010;-73
2022/05/22 10:59:02;;;;;;;4.25;1.40;;;;;;;22.74;100.00;100544.44;1869335;76;21018;-73
2022/05/22 11:01:34;;;;;;;2.47;1.30;;;;;;;;;;1873758;76;21452;-73
2022/05/22 11:04:07;;;;;;;4.87;1.92;;;;;;;22.99;100.00;100540.10;1868989;76;21195;-73
2022/05/22 11:06:37;;;;;;;7.17;4.03;;;;;;;23.05;100.00;100541.08;1868945;76;21129;-73
2022/05/22 11:09:06;;;;;;;6.22;1.75;;;;;;;23.51;100.00;100545.30;1847799;77;21044;-73
2022/05/22 11:11:37;;;;;;;15.60;9.00;;;;;;;23.65;100.00;100553.28;1860154;77;21007;-73
2022/05/22 11:14:21;;;;;;;7.15;3.47;;;;;;;23.81;100.00;100557.65;1857257;77;21491;-73
2022/05/22 11:16:49;;;;;;;8.08;2.05;;;;;;;23.94;100.00;100554.74;1870615;77;21467;-73
2022/05/22 11:19:28;;;;;;;2.50;1.30;;;;;;;23.87;100.00;100561.26;1870621;77;21010;-73
2022/05/22 11:21:58;;;;;;;3.12;1.30;;;;;;;24.09;100.00;100557.42;1870705;77;21061;-73
2022/05/22 11:24:48;;;;;;;3.10;1.40;;;;;;;24.76;100.00;100557.59;1870815;77;21503;-73
2022/05/22 11:27:25;;;;;;;2.90;1.42;;;;;;;24.91;100.00;100558.95;1870288;77;21045;-73
2022/05/22 11:30:07;;;;;;;3.37;1.57;;;;;;;24.66;100.00;100571.74;1870787;77;21037;-71
2022/05/22 11:32:47;;;;;;;3.92;2.15;;;;;;;24.88;100.00;100577.55;1870474;77;21093;-73
2022/05/22 11:35:35;;;;;;;1.65;1.20;;;;;;;24.77;100.00;100588.63;1870760;77;21572;-73
2022/05/22 11:38:08;;;;;;;2.22;1.20;;;;;;;24.59;100.00;100586.16;1870022;76;21037;-73
2022/05/22 11:40:45;;;;;;;9.03;3.70;;;;;;;24.61;100.00;100584.27;1854916;76;21127;-73
2022/05/22 11:43:33;;;;;;;5.20;1.80;;;;;;;24.42;100.00;100580.56;1870339;76;21006;-73
2022/05/22 11:46:28;;;;;;;3.58;1.60;;;;;;;24.59;100.00;100575.66;1870628;77;21046;-73
2022/05/22 11:49:01;;;;;;;3.35;1.12;;;;;;;24.43;100.00;100583.11;1870637;76;21022;-73
2022/05/22 11:51:56;;;;;;;2.70;1.07;;;;;;;24.48;100.00;100578.42;1877010;76;21025;-72